createdAt,value
2022-08-27T00:01:41.922Z,122.50
2022-08-27T00:04:10.282Z,95.00
2022-08-27T00:06:38.582Z,75.50
2022-08-27T00:09:07.092Z,53.25
2022-08-27T00:11:37.154Z,70.00
2022-08-27T00:14:05.892Z,75.75
2022-08-27T00:16:34.247Z,82.75
2022-08-27T00:19:03.180Z,86.75
2022-08-27T00:21:33.218Z,85.50
2022-08-27T00:24:01.563Z,94.75
2022-08-27T00:26:30.318Z,104.50
2022-08-27T00:29:00.497Z,89.50
2022-08-27T00:31:29.189Z,104.50
2022-08-27T00:33:57.797Z,109.25
2022-08-27T00:36:26.060Z,101.75
2022-08-27T00:38:54.569Z,95.50
2022-08-27T00:41:23.165Z,92.00
2022-08-27T00:43:53.937Z,94.00
2022-08-27T00:46:26.270Z,94.75
2022-08-27T00:48:56.995Z,99.50
2022-08-27T00:51:25.489Z,123.67
2022-08-27T00:53:55.109Z,105.75
2022-08-27T00:56:24.586Z,94.75
2022-08-27T00:58:54.139Z,95.50
2022-08-27T01:01:23.815Z,99.00
2022-08-27T01:03:54.529Z,102.00
2022-08-27T01:06:23.331Z,94.00
2022-08-27T01:08:53.925Z,83.50
2022-08-27T01:11:22.457Z,74.50
2022-08-27T01:14:00.146Z,78.50
2022-08-27T01:16:32.039Z,86.00
2022-08-27T01:19:02.323Z,94.25
2022-08-27T01:21:33.017Z,105.00
2022-08-27T01:24:04.525Z,99.75
2022-08-27T01:26:34.340Z,84.75
2022-08-27T01:29:02.749Z,90.50
2022-08-27T01:31:31.730Z,100.50
2022-08-27T01:34:01.091Z,98.75
2022-08-27T01:36:29.573Z,91.75
2022-08-27T01:38:57.799Z,73.50
2022-08-27T01:41:26.760Z,93.50
2022-08-27T01:43:56.319Z,93.50
2022-08-27T01:46:25.400Z,113.00
2022-08-27T01:48:54.020Z,81.33
2022-08-27T01:51:22.705Z,105.00
2022-08-27T01:53:51.596Z,84.00
2022-08-27T01:56:19.963Z,97.75
2022-08-27T01:58:48.189Z,87.00
2022-08-27T02:01:20.868Z,69.75
2022-08-27T02:03:50.059Z,76.75
2022-08-27T02:06:18.237Z,61.25
2022-08-27T02:08:46.445Z,71.75
2022-08-27T02:11:14.734Z,97.00
2022-08-27T02:13:43.061Z,111.25
2022-08-27T02:16:14.587Z,129.25
2022-08-27T02:18:44.275Z,110.50
2022-08-27T02:21:13.120Z,131.33
2022-08-27T02:23:42.267Z,93.25
2022-08-27T02:26:10.564Z,58.00
2022-08-27T02:28:38.799Z,58.50
2022-08-27T02:31:07.671Z,50.00
2022-08-27T02:33:36.417Z,64.25
2022-08-27T02:36:06.380Z,72.00
2022-08-27T02:38:34.543Z,70.50
2022-08-27T02:41:02.775Z,73.25
2022-08-27T02:43:31.666Z,69.50
2022-08-27T02:46:01.775Z,74.00
2022-08-27T02:48:29.933Z,92.00
2022-08-27T02:50:58.103Z,84.00
2022-08-27T02:53:28.698Z,64.67
2022-08-27T02:55:56.931Z,73.50
2022-08-27T02:58:25.106Z,70.50
2022-08-27T03:00:53.295Z,85.00
2022-08-27T03:03:21.414Z,85.50
2022-08-27T03:05:49.636Z,94.50
2022-08-27T03:08:18.103Z,74.50
2022-08-27T03:10:47.885Z,67.25
2022-08-27T03:13:16.120Z,70.33
2022-08-27T03:15:44.351Z,79.00
2022-08-27T03:18:21.969Z,74.25
2022-08-27T03:20:51.631Z,61.00
2022-08-27T03:23:22.138Z,69.50
2022-08-27T03:25:53.234Z,55.80
2022-08-27T03:28:23.577Z,64.00
2022-08-27T03:30:53.190Z,59.00
2022-08-27T03:33:22.506Z,55.75
2022-08-27T03:35:52.026Z,76.67
2022-08-27T03:38:20.546Z,63.75
2022-08-27T03:40:48.752Z,78.25
2022-08-27T03:43:18.909Z,75.50
2022-08-27T03:45:48.348Z,98.75
2022-08-27T03:48:29.540Z,113.75
2022-08-27T03:50:57.902Z,76.50
2022-08-27T03:53:26.190Z,93.00
2022-08-27T03:55:54.338Z,79.00
2022-08-27T03:58:23.806Z,77.00
2022-08-27T04:00:51.985Z,100.25
2022-08-27T04:03:20.300Z,88.50
2022-08-27T04:05:55.999Z,93.25
2022-08-27T04:08:24.437Z,75.50
2022-08-27T04:10:55.070Z,79.25
2022-08-27T04:13:25.385Z,93.50
2022-08-27T04:15:57.069Z,93.50
2022-08-27T04:18:25.794Z,76.00
2022-08-27T04:20:54.119Z,76.33
2022-08-27T04:23:22.646Z,86.25
2022-08-27T04:25:51.092Z,89.33
2022-08-27T04:28:19.308Z,81.67
2022-08-27T04:30:49.016Z,88.00
2022-08-27T04:33:17.262Z,82.75
2022-08-27T04:35:45.530Z,80.75
2022-08-27T04:38:13.770Z,80.25
2022-08-27T04:40:59.197Z,69.75
2022-08-27T04:43:28.377Z,71.25
2022-08-27T04:45:57.962Z,78.67
2022-08-27T04:48:26.860Z,74.00
2022-08-27T04:50:55.192Z,83.75
2022-08-27T04:53:23.581Z,81.00
2022-08-27T04:55:52.707Z,76.50
2022-08-27T04:58:21.680Z,80.33
2022-08-27T05:00:51.108Z,84.50
2022-08-27T05:03:23.818Z,78.67
2022-08-27T05:05:52.394Z,86.67
2022-08-27T05:08:20.777Z,77.67
2022-08-27T05:10:50.038Z,80.75
2022-08-27T05:13:20.074Z,73.33
2022-08-27T05:15:49.126Z,79.67
2022-08-27T05:18:17.415Z,78.67
2022-08-27T05:20:48.729Z,75.33
2022-08-27T05:23:20.032Z,78.00
2022-08-27T05:25:49.106Z,82.00
2022-08-27T05:28:18.060Z,75.25
2022-08-27T05:30:52.429Z,71.00
2022-08-27T05:33:25.432Z,81.67
2022-08-27T05:35:56.236Z,77.67
2022-08-27T05:38:26.550Z,71.25
2022-08-27T05:41:04.483Z,78.00
2022-08-27T05:43:33.439Z,80.75
2022-08-27T05:46:04.469Z,80.33
2022-08-27T05:48:32.738Z,83.33
2022-08-27T05:51:08.476Z,80.75
2022-08-27T05:53:37.003Z,89.50
2022-08-27T05:56:05.476Z,60.25
2022-08-27T05:58:51.041Z,87.50
2022-08-27T06:01:21.165Z,90.50
2022-08-27T06:03:49.544Z,93.00
2022-08-27T06:06:19.333Z,90.75
2022-08-27T06:08:47.698Z,92.25
2022-08-27T06:11:15.886Z,87.75
2022-08-27T06:13:44.907Z,90.00
2022-08-27T06:16:14.371Z,81.50
2022-08-27T06:18:43.613Z,81.25
2022-08-27T06:21:12.758Z,88.25
2022-08-27T06:23:42.771Z,86.00
2022-08-27T06:26:15.169Z,88.00
2022-08-27T06:28:44.166Z,85.75
2022-08-27T06:31:14.011Z,90.00
2022-08-27T06:33:43.657Z,85.75
2022-08-27T06:36:13.034Z,86.25
2022-08-27T06:38:43.383Z,82.00
2022-08-27T06:41:16.297Z,85.50
2022-08-27T06:43:45.114Z,80.75
2022-08-27T06:46:15.174Z,82.50
2022-08-27T06:48:45.305Z,77.00
2022-08-27T06:51:16.801Z,82.00
2022-08-27T06:53:46.971Z,79.00
2022-08-27T06:56:15.889Z,77.75
2022-08-27T06:58:44.206Z,70.50
2022-08-27T07:01:16.516Z,66.25
2022-08-27T07:03:45.841Z,68.75
2022-08-27T07:06:16.685Z,68.00
2022-08-27T07:08:53.606Z,70.00
2022-08-27T07:11:22.688Z,75.00
2022-08-27T07:13:51.460Z,61.75
2022-08-27T07:16:22.664Z,76.00
2022-08-27T07:18:52.356Z,74.75
2022-08-27T07:21:21.146Z,65.00
2022-08-27T07:23:51.685Z,63.75
2022-08-27T07:26:20.721Z,74.50
2022-08-27T07:28:50.216Z,72.00
2022-08-27T07:31:20.507Z,71.50
2022-08-27T07:33:52.778Z,66.50
2022-08-27T07:36:21.984Z,65.75
2022-08-27T07:39:00.773Z,58.75
2022-08-27T07:41:31.359Z,60.80
2022-08-27T07:44:17.416Z,62.75
2022-08-27T07:46:48.464Z,60.50
2022-08-27T07:49:17.707Z,59.20
2022-08-27T07:51:46.161Z,55.40
2022-08-27T07:54:16.079Z,49.00
2022-08-27T07:56:54.790Z,55.40
2022-08-27T07:59:24.550Z,53.40
2022-08-27T08:01:53.144Z,51.80
2022-08-27T08:04:22.877Z,41.60
2022-08-27T08:06:51.689Z,46.60
2022-08-27T08:09:22.406Z,48.40
2022-08-27T08:11:50.887Z,46.80
2022-08-27T08:14:19.216Z,46.00
2022-08-27T08:16:48.183Z,48.00
2022-08-27T08:19:16.578Z,49.60
2022-08-27T08:21:44.972Z,48.80
2022-08-27T08:24:13.192Z,42.00
2022-08-27T08:26:44.481Z,42.60
2022-08-27T08:29:17.978Z,41.60
2022-08-27T08:31:50.168Z,47.20
2022-08-27T08:34:19.478Z,41.40
2022-08-27T08:36:54.028Z,41.00
2022-08-27T08:39:23.582Z,34.00
2022-08-27T08:41:55.608Z,42.00
2022-08-27T08:44:31.259Z,37.60
2022-08-27T08:47:01.488Z,38.40
2022-08-27T08:49:33.789Z,33.00
2022-08-27T08:52:12.193Z,33.80
2022-08-27T08:55:01.775Z,32.40
2022-08-27T08:57:37.096Z,32.00
2022-08-27T09:00:10.965Z,30.20
2022-08-27T09:02:39.537Z,28.00
2022-08-27T09:05:08.921Z,27.00
2022-08-27T09:07:39.579Z,27.20
2022-08-27T09:10:15.406Z,25.25
2022-08-27T09:12:46.549Z,31.00
2022-08-27T09:15:17.369Z,26.00
2022-08-27T09:17:47.830Z,26.60
2022-08-27T09:20:19.595Z,28.50
2022-08-27T09:22:51.205Z,22.25
2022-08-27T09:25:21.490Z,22.00
2022-08-27T09:27:52.543Z,24.00
2022-08-27T09:30:22.517Z,26.00
2022-08-27T09:32:56.596Z,14.75
2022-08-27T09:35:26.942Z,23.75
2022-08-27T09:37:56.319Z,26.00
2022-08-27T09:40:27.490Z,17.50
2022-08-27T09:42:58.612Z,22.00
2022-08-27T09:45:29.989Z,19.75
2022-08-27T09:48:05.135Z,19.00
2022-08-27T09:50:39.596Z,18.25
2022-08-27T09:53:18.751Z,18.25
2022-08-27T09:55:49.787Z,19.75
2022-08-27T09:58:21.795Z,17.50
2022-08-27T10:00:51.370Z,19.50
2022-08-27T10:03:23.591Z,19.75
2022-08-27T10:05:54.283Z,19.75
2022-08-27T10:08:24.824Z,19.75
2022-08-27T10:10:58.232Z,12.75
2022-08-27T10:13:32.444Z,19.00
2022-08-27T10:16:07.442Z,19.50
2022-08-27T10:18:41.577Z,21.00
2022-08-27T10:21:15.505Z,22.00
2022-08-27T10:23:46.712Z,13.75
2022-08-27T10:26:21.633Z,21.00
2022-08-27T10:28:59.204Z,22.50
2022-08-27T10:31:33.114Z,19.50
2022-08-27T10:34:12.586Z,20.75
2022-08-27T10:36:47.397Z,20.50
2022-08-27T10:39:22.870Z,20.25
2022-08-27T10:41:58.179Z,21.00
2022-08-27T10:44:39.950Z,19.75
2022-08-27T10:47:14.081Z,22.25
2022-08-27T10:49:48.229Z,20.75
2022-08-27T10:52:19.466Z,19.25
2022-08-27T10:54:52.372Z,21.50
2022-08-27T10:57:40.225Z,21.25
2022-08-27T11:00:17.374Z,21.75
2022-08-27T11:02:46.900Z,19.50
2022-08-27T11:05:18.481Z,21.75
2022-08-27T11:07:48.843Z,22.75
2022-08-27T11:10:21.026Z,21.00
2022-08-27T11:12:51.372Z,21.00
2022-08-27T11:15:24.257Z,21.50
2022-08-27T11:17:55.986Z,22.75
2022-08-27T11:20:27.057Z,21.00
2022-08-27T11:22:57.975Z,20.75
2022-08-27T11:25:32.237Z,22.75
2022-08-27T11:28:01.079Z,22.25
2022-08-27T11:30:36.190Z,20.50
2022-08-27T11:33:13.863Z,22.00
2022-08-27T11:35:50.001Z,23.00
2022-08-27T11:38:34.804Z,19.50
2022-08-27T11:41:12.271Z,21.25
2022-08-27T11:43:41.048Z,23.25
2022-08-27T11:46:11.169Z,22.00
2022-08-27T11:48:41.388Z,21.00
2022-08-27T11:51:12.430Z,21.33
2022-08-27T11:53:56.197Z,18.75
2022-08-27T11:56:37.160Z,21.00
2022-08-27T11:59:10.728Z,21.75
2022-08-27T12:01:41.564Z,20.50
2022-08-27T12:04:23.098Z,19.00
2022-08-27T12:06:53.750Z,22.75
2022-08-27T12:09:22.754Z,21.50
2022-08-27T12:12:00.080Z,22.00
2022-08-27T12:14:37.050Z,21.75
2022-08-27T12:17:11.519Z,22.00
2022-08-27T12:19:47.203Z,21.00
2022-08-27T12:22:22.569Z,21.00
2022-08-27T12:24:53.035Z,18.25
2022-08-27T12:27:29.536Z,21.50
2022-08-27T12:30:00.036Z,21.50
2022-08-27T12:32:31.991Z,20.75
2022-08-27T12:35:05.577Z,22.00
2022-08-27T12:37:37.318Z,19.00
2022-08-27T12:40:12.987Z,22.25
2022-08-27T12:42:41.611Z,19.25
2022-08-27T12:45:10.215Z,22.00
2022-08-27T12:47:50.667Z,21.00
2022-08-27T12:50:24.245Z,20.50
2022-08-27T12:52:58.609Z,22.00
2022-08-27T12:55:33.828Z,21.75
2022-08-27T12:58:13.426Z,22.50
2022-08-27T13:00:59.162Z,24.25
2022-08-27T13:03:34.327Z,22.75
2022-08-27T13:06:02.686Z,21.25
2022-08-27T13:08:31.985Z,23.25
2022-08-27T13:11:08.883Z,22.50
2022-08-27T13:13:43.354Z,22.25
2022-08-27T13:16:13.160Z,25.25
2022-08-27T13:18:43.867Z,24.80
2022-08-27T13:21:15.657Z,25.25
2022-08-27T13:23:56.196Z,21.00
2022-08-27T13:26:25.558Z,19.00
2022-08-27T13:28:54.325Z,26.00
2022-08-27T13:31:23.796Z,24.00
2022-08-27T13:33:58.767Z,25.25
2022-08-27T13:36:27.958Z,24.25
2022-08-27T13:39:02.298Z,20.50
2022-08-27T13:41:31.823Z,24.00
2022-08-27T13:44:07.694Z,23.75
2022-08-27T13:46:37.497Z,23.00
2022-08-27T13:49:09.237Z,23.80
2022-08-27T13:51:37.621Z,25.75
2022-08-27T13:54:14.414Z,22.00
2022-08-27T13:56:45.507Z,23.75
2022-08-27T13:59:17.479Z,24.00
2022-08-27T14:01:57.219Z,23.25
2022-08-27T14:04:28.147Z,25.20
2022-08-27T14:06:59.266Z,23.80
2022-08-27T14:09:28.486Z,25.50
2022-08-27T14:12:01.078Z,23.00
2022-08-27T14:14:30.676Z,24.25
2022-08-27T14:17:00.122Z,23.60
2022-08-27T14:19:33.259Z,26.00
2022-08-27T14:22:04.720Z,23.25
2022-08-27T14:24:34.051Z,24.00
2022-08-27T14:27:05.665Z,25.00
2022-08-27T14:29:34.302Z,26.25
2022-08-27T14:32:02.538Z,25.75
2022-08-27T14:34:32.464Z,26.75
2022-08-27T14:37:00.785Z,23.75
2022-08-27T14:39:29.082Z,25.80
2022-08-27T14:41:57.805Z,25.60
2022-08-27T14:44:27.144Z,22.50
2022-08-27T14:46:55.558Z,24.00
2022-08-27T14:49:27.581Z,24.75
2022-08-27T14:51:57.267Z,27.20
2022-08-27T14:54:30.534Z,24.40
2022-08-27T14:57:02.993Z,26.75
2022-08-27T14:59:32.099Z,22.00
2022-08-27T15:02:01.650Z,28.00
2022-08-27T15:04:32.420Z,27.80
2022-08-27T15:07:02.328Z,27.80
2022-08-27T15:09:31.046Z,28.00
2022-08-27T15:11:59.696Z,26.80
2022-08-27T15:14:29.255Z,27.40
2022-08-27T15:16:57.399Z,27.00
2022-08-27T15:19:26.152Z,28.00
2022-08-27T15:21:55.160Z,25.20
2022-08-27T15:24:25.955Z,27.40
2022-08-27T15:26:57.589Z,28.00
2022-08-27T15:29:25.795Z,27.60
2022-08-27T15:31:54.687Z,27.40
2022-08-27T15:34:22.906Z,28.40
2022-08-27T15:36:54.382Z,30.80
2022-08-27T15:39:22.663Z,27.40
2022-08-27T15:42:05.829Z,29.60
2022-08-27T15:44:34.639Z,28.80
2022-08-27T15:47:03.094Z,28.80
2022-08-27T15:49:31.403Z,28.20
2022-08-27T15:51:59.764Z,29.00
2022-08-27T15:54:27.847Z,30.00
2022-08-27T15:56:57.991Z,29.00
2022-08-27T15:59:26.221Z,31.20
2022-08-27T16:01:54.820Z,30.00
2022-08-27T16:04:23.404Z,29.00
2022-08-27T16:06:51.477Z,30.80
2022-08-27T16:09:19.987Z,31.20
2022-08-27T16:11:48.135Z,29.60
2022-08-27T16:14:17.760Z,32.40
2022-08-27T16:16:47.285Z,33.20
2022-08-27T16:19:16.732Z,33.00
2022-08-27T16:21:45.577Z,34.60
2022-08-27T16:24:14.639Z,32.00
2022-08-27T16:26:42.777Z,33.20
2022-08-27T16:29:11.141Z,34.40
2022-08-27T16:31:40.886Z,33.60
2022-08-27T16:34:15.168Z,34.00
2022-08-27T16:36:43.441Z,35.60
2022-08-27T16:39:11.677Z,32.60
2022-08-27T16:41:40.344Z,34.20
2022-08-27T16:44:08.414Z,34.00
2022-08-27T16:46:36.706Z,35.00
2022-08-27T16:49:24.902Z,35.00
2022-08-27T16:51:54.043Z,36.60
2022-08-27T16:54:22.210Z,37.60
2022-08-27T16:56:50.472Z,38.80
2022-08-27T16:59:18.544Z,35.00
2022-08-27T17:01:48.468Z,38.00
2022-08-27T17:04:26.499Z,36.80
2022-08-27T17:06:58.379Z,41.00
2022-08-27T17:09:27.525Z,43.40
2022-08-27T17:11:57.185Z,39.60
2022-08-27T17:14:26.436Z,42.40
2022-08-27T17:16:55.120Z,51.20
2022-08-27T17:19:26.294Z,55.00
2022-08-27T17:21:55.080Z,42.80
2022-08-27T17:24:23.579Z,52.80
2022-08-27T17:26:51.811Z,50.60
2022-08-27T17:29:21.229Z,54.60
2022-08-27T17:31:50.222Z,51.40
2022-08-27T17:34:20.893Z,59.40
2022-08-27T17:36:50.513Z,60.00
2022-08-27T17:39:19.473Z,51.60
2022-08-27T17:41:48.368Z,53.20
2022-08-27T17:44:21.594Z,58.80
2022-08-27T17:46:50.284Z,54.00
2022-08-27T17:49:18.936Z,62.50
2022-08-27T17:51:48.590Z,70.50
2022-08-27T17:54:26.255Z,69.25
2022-08-27T17:56:54.568Z,56.20
2022-08-27T17:59:22.642Z,61.00
2022-08-27T18:01:50.854Z,69.25
2022-08-27T18:04:20.066Z,71.75
2022-08-27T18:06:48.309Z,56.60
2022-08-27T18:09:16.668Z,58.00
2022-08-27T18:11:46.712Z,59.00
2022-08-27T18:14:18.562Z,49.00
2022-08-27T18:16:48.156Z,64.00
2022-08-27T18:19:17.018Z,56.25
2022-08-27T18:21:46.516Z,60.60
2022-08-27T18:24:15.485Z,59.80
2022-08-27T18:26:44.724Z,63.60
2022-08-27T18:29:15.528Z,61.00
2022-08-27T18:31:44.181Z,58.20
2022-08-27T18:34:16.369Z,56.50
2022-08-27T18:36:47.562Z,61.20
2022-08-27T18:39:15.814Z,56.20
2022-08-27T18:41:44.634Z,60.20
2022-08-27T18:44:17.788Z,59.80
2022-08-27T18:46:47.660Z,56.60
2022-08-27T18:49:15.780Z,54.60
2022-08-27T18:51:47.149Z,52.80
2022-08-27T18:54:19.995Z,54.80
2022-08-27T18:56:48.241Z,53.80
2022-08-27T18:59:16.443Z,48.40
2022-08-27T19:01:44.997Z,56.20
2022-08-27T19:04:16.565Z,58.40
2022-08-27T19:06:44.683Z,52.40
2022-08-27T19:09:12.885Z,52.60
2022-08-27T19:11:41.077Z,56.60
2022-08-27T19:14:09.195Z,57.20
2022-08-27T19:16:41.468Z,64.75
2022-08-27T19:19:11.119Z,49.50
2022-08-27T19:21:40.593Z,57.20
2022-08-27T19:24:09.018Z,60.25
2022-08-27T19:26:37.278Z,56.00
2022-08-27T19:29:05.490Z,50.20
2022-08-27T19:31:36.523Z,49.80
2022-08-27T19:34:05.708Z,54.40
2022-08-27T19:36:35.071Z,53.40
2022-08-27T19:39:04.874Z,57.60
2022-08-27T19:41:33.200Z,54.40
2022-08-27T19:44:01.316Z,55.40
2022-08-27T19:46:29.529Z,62.25
2022-08-27T19:48:58.145Z,58.80
2022-08-27T19:51:26.423Z,55.40
2022-08-27T19:53:54.549Z,61.00
2022-08-27T19:56:24.051Z,53.00
2022-08-27T19:58:56.960Z,46.20
2022-08-27T20:01:26.928Z,53.80
2022-08-27T20:03:56.914Z,43.00
2022-08-27T20:06:27.546Z,49.80
2022-08-27T20:08:55.697Z,48.40
2022-08-27T20:11:25.212Z,51.00
2022-08-27T20:13:53.278Z,53.60
2022-08-27T20:16:23.841Z,52.80
2022-08-27T20:18:51.998Z,47.60
2022-08-27T20:21:20.084Z,46.60
2022-08-27T20:23:48.297Z,43.80
2022-08-27T20:26:16.633Z,43.20
2022-08-27T20:28:47.935Z,44.40
2022-08-27T20:31:17.933Z,46.00
2022-08-27T20:33:46.626Z,43.60
2022-08-27T20:36:14.814Z,42.60
2022-08-27T20:38:43.395Z,43.40
2022-08-27T20:41:11.553Z,45.20
2022-08-27T20:43:39.740Z,42.60
2022-08-27T20:46:10.155Z,52.20
2022-08-27T20:48:39.350Z,56.00
2022-08-27T20:51:07.644Z,55.00
2022-08-27T20:53:36.359Z,50.60
2022-08-27T20:56:04.698Z,50.20
2022-08-27T20:58:50.508Z,50.20
2022-08-27T21:01:20.083Z,49.80
2022-08-27T21:03:51.954Z,51.40
2022-08-27T21:06:25.006Z,49.80
2022-08-27T21:08:54.668Z,47.60
2022-08-27T21:11:22.836Z,46.40
2022-08-27T21:13:56.140Z,46.80
2022-08-27T21:16:26.830Z,57.40
2022-08-27T21:18:55.870Z,42.60
2022-08-27T21:21:24.272Z,39.20
2022-08-27T21:23:52.473Z,37.40
2022-08-27T21:26:23.067Z,46.00
2022-08-27T21:28:55.647Z,64.25
2022-08-27T21:31:24.380Z,51.40
2022-08-27T21:33:54.062Z,42.40
2022-08-27T21:36:22.380Z,49.40
2022-08-27T21:38:50.724Z,46.20
2022-08-27T21:41:18.975Z,44.00
2022-08-27T21:43:47.190Z,42.60
2022-08-27T21:46:15.452Z,43.00
2022-08-27T21:48:43.691Z,42.20
2022-08-27T21:51:14.721Z,43.60
2022-08-27T21:53:52.664Z,42.80
2022-08-27T21:56:20.864Z,42.80
2022-08-27T21:58:49.359Z,47.00
2022-08-27T22:01:17.813Z,42.20
2022-08-27T22:03:49.539Z,38.00
2022-08-27T22:06:19.186Z,40.20
2022-08-27T22:08:47.336Z,42.60
2022-08-27T22:11:15.618Z,45.20
2022-08-27T22:13:45.118Z,44.60
2022-08-27T22:16:13.375Z,42.20
2022-08-27T22:18:41.486Z,40.40
2022-08-27T22:21:09.627Z,38.20
2022-08-27T22:23:39.174Z,44.00
2022-08-27T22:26:13.191Z,49.40
2022-08-27T22:28:41.643Z,49.00
2022-08-27T22:31:10.906Z,43.40
2022-08-27T22:33:49.902Z,39.60
2022-08-27T22:36:22.990Z,36.80
2022-08-27T22:38:52.771Z,34.80
2022-08-27T22:44:33.213Z,33.00
2022-08-27T22:47:06.478Z,34.80
2022-08-27T22:49:40.392Z,35.40
2022-08-27T22:52:25.818Z,32.20
2022-08-27T22:55:27.422Z,36.00
2022-08-27T22:58:19.425Z,36.00
2022-08-27T23:09:41.830Z,43.20
2022-08-27T23:43:20.988Z,39.00
